Time;durP1;ratioP1;P1;durP2;ratioP2;P2;SDS_P1;SDS_P2;PMS_P1;PMS_P2;Temp;Humidity;BMP_temperature;BMP_pressure;BME280_temperature;BME280_humidity;BME280_pressure;Samples;Min_cycle;Max_cycle;Signal;HPM_P1;HPM_P2
2022/12/04 00:00:33;;;;;;;7.50;5.53;;;;;;;19.76;60.80;100825.31;5097076;28;20055;-79
2022/12/04 00:03:00;;;;;;;5.95;4.75;;;;;;;19.75;60.59;100823.63;5096803;28;20046;-79
2022/12/04 00:05:28;;;;;;;6.35;4.75;;;;;;;19.74;60.61;100821.94;5096446;28;20059;-78
2022/12/04 00:07:55;;;;;;;6.30;4.88;;;;;;;19.75;60.42;100829.00;5096048;28;20036;-78
2022/12/04 00:10:23;;;;;;;6.82;5.10;;;;;;;19.74;60.43;100829.16;5080621;28;20056;-78
2022/12/04 00:12:50;;;;;;;5.65;4.60;;;;;;;19.74;60.36;100826.47;5075056;28;20051;-78
2022/12/04 00:15:17;;;;;;;8.07;5.43;;;;;;;19.74;60.23;100827.31;5075695;28;20048;-78
2022/12/04 00:17:53;;;;;;;7.25;4.70;;;;;;;19.74;60.45;100826.47;5059610;28;20063;-78
2022/12/04 00:20:21;;;;;;;6.55;4.72;;;;;;;19.74;60.42;100829.16;5075709;28;20041;-78
2022/12/04 00:22:49;;;;;;;6.82;5.20;;;;;;;19.73;60.41;100824.78;5075494;28;20435;-78
2022/12/04 00:25:16;;;;;;;6.40;5.05;;;;;;;19.71;60.37;100819.50;5075427;28;20052;-78
2022/12/04 00:27:43;;;;;;;7.25;4.43;;;;;;;19.72;60.27;100810.47;5076499;28;20044;-78
2022/12/04 00:30:11;;;;;;;6.32;4.47;;;;;;;19.70;60.39;100807.06;5076229;28;20051;-78
2022/12/04 00:32:39;;;;;;;6.95;5.18;;;;;;;19.70;60.59;100801.72;5075632;28;20052;-77
2022/12/04 00:35:06;;;;;;;7.15;5.00;;;;;;;19.70;59.88;100804.38;5075150;28;20041;-77
2022/12/04 00:37:34;;;;;;;7.45;5.32;;;;;;;19.72;59.55;100793.50;5075582;28;20055;-77
2022/12/04 00:40:01;;;;;;;5.47;4.70;;;;;;;19.70;59.59;100788.28;5075356;28;20060;-77
2022/12/04 00:42:29;;;;;;;5.32;4.68;;;;;;;19.70;59.63;100793.66;5075145;28;20044;-77
2022/12/04 00:44:56;;;;;;;6.13;4.40;;;;;;;19.70;59.45;100790.97;5075092;28;20407;-77
2022/12/04 00:47:23;;;;;;;6.07;4.60;;;;;;;19.71;59.84;100789.13;5083197;28;20052;-77
2022/12/04 00:49:51;;;;;;;6.68;4.82;;;;;;;19.70;59.42;100795.50;5094817;28;20062;-77
2022/12/04 00:52:18;;;;;;;5.30;4.22;;;;;;;19.70;59.46;100792.81;5095371;28;20044;-77
2022/12/04 00:54:46;;;;;;;6.72;4.55;;;;;;;19.70;59.40;100785.59;5095714;28;20044;-76
2022/12/04 00:57:13;;;;;;;5.45;4.57;;;;;;;19.70;59.53;100777.53;5095815;28;20044;-77
2022/12/04 00:59:40;;;;;;;5.35;4.22;;;;;;;19.69;59.13;100794.66;5094131;28;20395;-77
2022/12/04 01:02:08;;;;;;;4.97;4.00;;;;;;;19.70;59.07;100771.31;5095665;28;20043;-77
2022/12/04 01:04:35;;;;;;;5.60;4.65;;;;;;;19.69;58.86;100791.97;5095299;28;20047;-77
2022/12/04 01:07:02;;;;;;;5.50;4.53;;;;;;;19.70;58.81;100776.69;5095418;28;20044;-77
2022/12/04 01:09:31;;;;;;;5.80;4.15;;;;;;;19.69;58.47;100764.25;5093889;28;20411;-77
2022/12/04 01:11:59;;;;;;;6.03;5.03;;;;;;;19.70;58.69;100763.25;5095726;28;20059;-77
2022/12/04 01:14:26;;;;;;;5.97;4.55;;;;;;;19.70;58.39;100757.88;5093374;28;20126;-77
2022/12/04 01:16:54;;;;;;;4.88;4.30;;;;;;;19.68;58.42;100749.94;5094686;28;20492;-77
2022/12/04 01:19:21;;;;;;;6.68;4.32;;;;;;;19.68;58.14;100755.31;5095565;28;20052;-77
2022/12/04 01:21:48;;;;;;;6.35;4.53;;;;;;;19.68;58.42;100752.63;5095258;28;20044;-77
2022/12/04 01:24:16;;;;;;;6.43;4.45;;;;;;;19.68;58.24;100749.94;5094332;28;20051;-77
2022/12/04 01:26:43;;;;;;;5.93;3.75;;;;;;;19.68;58.18;100752.63;5093120;28;20529;-76
2022/12/04 01:29:10;;;;;;;5.75;4.55;;;;;;;19.68;58.19;100746.41;5094953;28;20039;-78
2022/12/04 01:31:38;;;;;;;5.75;4.40;;;;;;;19.68;58.24;100749.94;5094711;28;20055;-78
2022/12/04 01:34:06;;;;;;;6.55;4.43;;;;;;;19.67;57.97;100747.41;5094192;28;20044;-79
2022/12/04 01:36:33;;;;;;;4.95;4.43;;;;;;;19.67;57.71;100737.50;5095138;28;20058;-78
2022/12/04 01:39:00;;;;;;;5.30;3.90;;;;;;;19.67;57.80;100728.59;5076149;28;20060;-78
2022/12/04 01:41:29;;;;;;;5.80;4.40;;;;;;;19.68;57.64;100724.94;5094797;28;20380;-78
2022/12/04 01:44:10;;;;;;;6.18;4.50;;;;;;;19.67;57.39;100736.66;5095342;28;20051;-78
2022/12/04 01:46:38;;;;;;;6.00;4.05;;;;;;;19.66;57.63;100730.44;5095141;28;20052;-78
2022/12/04 01:49:11;;;;;;;5.65;3.90;;;;;;;19.66;57.79;100713.50;5094697;28;20403;-78
2022/12/04 01:51:42;;;;;;;5.35;4.30;;;;;;;19.66;57.62;100713.50;5094034;28;20055;-78
2022/12/04 01:54:17;;;;;;;5.20;3.95;;;;;;;19.66;57.77;100698.22;5093712;28;20059;-78
2022/12/04 01:57:07;;;;;;;4.95;3.95;;;;;;;19.66;57.44;100682.09;5095721;28;20506;-77
2022/12/04 01:59:43;;;;;;;5.22;4.05;;;;;;;19.67;57.55;100691.00;5093690;28;20052;-77
2022/12/04 02:02:13;;;;;;;5.07;3.92;;;;;;;19.66;57.49;100690.16;5087987;28;20477;-77
2022/12/04 02:04:42;;;;;;;4.55;3.78;;;;;;;19.65;57.64;100685.78;5073703;28;20048;-77
2022/12/04 02:07:10;;;;;;;5.10;3.85;;;;;;;19.65;57.28;100693.84;5073573;28;20067;-78
2022/12/04 02:09:39;;;;;;;5.38;4.10;;;;;;;19.65;57.07;100693.84;5074694;28;20052;-77
2022/12/04 02:12:21;;;;;;;5.38;3.50;;;;;;;19.65;57.28;100679.56;5074917;28;20044;-77
2022/12/04 02:14:59;;;;;;;4.38;3.50;;;;;;;19.64;57.08;100686.75;5073009;28;20127;-77
2022/12/04 02:17:42;;;;;;;4.55;3.75;;;;;;;19.64;57.46;100689.44;5074777;28;20048;-78
2022/12/04 02:20:19;;;;;;;6.20;3.60;;;;;;;19.64;57.14;100684.06;5073464;28;20056;-78
2022/12/04 02:22:49;;;;;;;4.78;3.72;;;;;;;19.65;57.24;100687.63;5073251;28;20044;-77
2022/12/04 02:25:47;;;;;;;5.13;3.88;;;;;;;19.63;57.11;100685.06;5073995;28;20050;-77
2022/12/04 02:28:24;;;;;;;4.32;3.60;;;;;;;19.64;57.08;100676.00;5074843;28;20048;-78
2022/12/04 02:30:56;;;;;;;5.47;4.03;;;;;;;19.63;57.07;100671.63;5073769;28;20055;-78
2022/12/04 02:33:30;;;;;;;4.53;3.67;;;;;;;19.64;56.67;100662.56;5074139;28;20055;-78
2022/12/04 02:36:10;;;;;;;4.15;3.30;;;;;;;19.64;56.71;100672.47;5072396;28;20049;-78
2022/12/04 02:38:54;;;;;;;3.95;2.90;;;;;;;19.63;56.74;100655.53;5073991;28;20400;-78
2022/12/04 02:41:33;;;;;;;3.58;2.83;;;;;;;19.64;56.83;100661.72;5074823;28;20067;-79
2022/12/04 02:44:30;;;;;;;3.92;3.30;;;;;;;19.63;56.36;100655.53;5074603;28;20048;-78
2022/12/04 02:47:03;;;;;;;4.90;3.40;;;;;;;19.62;56.81;100651.13;5075432;28;20059;-78
2022/12/04 02:49:36;;;;;;;4.55;3.50;;;;;;;19.62;56.57;100659.19;5086437;28;20043;-78
2022/12/04 02:52:09;;;;;;;5.15;3.47;;;;;;;19.62;56.48;100653.81;5096924;28;20048;-78
2022/12/04 02:54:41;;;;;;;4.88;3.30;;;;;;;19.63;56.36;100647.47;5098341;28;20048;-78
2022/12/04 02:57:16;;;;;;;4.25;2.80;;;;;;;19.62;56.38;100637.72;5098574;28;20055;-78
2022/12/04 02:59:46;;;;;;;5.35;3.13;;;;;;;19.62;56.11;100631.50;5098426;28;20047;-79
2022/12/04 03:02:37;;;;;;;4.30;3.17;;;;;;;19.63;56.25;100627.81;5099129;28;20052;-79
2022/12/04 03:05:11;;;;;;;4.43;3.22;;;;;;;19.62;56.05;100620.75;5098180;28;20047;-79
2022/12/04 03:07:46;;;;;;;3.67;2.95;;;;;;;19.61;55.72;100625.28;5098431;28;20048;-79
2022/12/04 03:10:29;;;;;;;4.78;3.05;;;;;;;19.62;55.91;100634.19;5098308;28;20047;-81
2022/12/04 03:13:02;;;;;;;4.50;2.58;;;;;;;19.61;55.40;100622.59;5096707;28;20052;-78
2022/12/04 03:15:36;;;;;;;3.75;2.70;;;;;;;19.61;55.84;100614.53;5097814;28;20048;-77
2022/12/04 03:18:10;;;;;;;3.95;2.85;;;;;;;19.61;55.77;100613.66;5097909;28;20114;-77
2022/12/04 03:20:37;;;;;;;3.92;2.97;;;;;;;19.62;55.56;100626.97;5097847;28;20475;-77
2022/12/04 03:23:13;;;;;;;4.40;2.90;;;;;;;19.62;55.34;100616.22;5096448;28;20497;-78
2022/12/04 03:26:18;;;;;;;3.80;2.90;;;;;;;19.62;55.24;100615.38;5096926;28;20051;-78
2022/12/04 03:28:54;;;;;;;3.92;2.88;;;;;;;19.62;55.21;100610.00;5096551;28;20055;-78
2022/12/04 03:31:32;;;;;;;4.28;2.83;;;;;;;19.62;55.22;100612.69;5097871;28;20047;-78
2022/12/04 03:34:03;;;;;;;3.45;2.80;;;;;;;19.62;55.46;100610.00;5097615;28;20066;-78
2022/12/04 03:36:36;;;;;;;3.78;2.83;;;;;;;19.62;55.15;100610.88;5097638;28;20036;-77
2022/12/04 03:39:30;;;;;;;3.30;2.00;;;;;;;19.61;55.24;100593.06;5097553;28;20059;-77
2022/12/04 03:42:12;;;;;;;3.25;2.35;;;;;;;19.61;55.32;100609.16;5096444;28;20044;-77
2022/12/04 03:44:45;;;;;;;3.92;2.72;;;;;;;19.61;55.16;100592.19;5096911;28;20479;-77
2022/12/04 03:47:20;;;;;;;4.03;2.50;;;;;;;19.61;55.08;100601.13;5095931;28;20434;-78
2022/12/04 03:49:54;;;;;;;3.53;2.75;;;;;;;19.61;55.15;100608.28;5097111;28;20467;-79
2022/12/04 03:52:28;;;;;;;4.78;2.97;;;;;;;19.61;54.90;100632.47;5097404;28;20048;-78
2022/12/04 03:55:09;;;;;;;3.25;2.55;;;;;;;19.60;54.92;100642.31;5096804;28;20047;-78
2022/12/04 03:57:42;;;;;;;3.28;2.33;;;;;;;19.60;54.94;100655.75;5097241;28;20487;-78
2022/12/04 04:00:13;;;;;;;3.38;2.20;;;;;;;19.60;54.85;100641.47;5096615;28;20497;-77
2022/12/04 04:02:56;;;;;;;3.30;2.42;;;;;;;19.61;54.96;100632.47;5096050;28;20491;-78
2022/12/04 04:05:25;;;;;;;2.92;2.10;;;;;;;19.60;54.75;100633.44;5096679;28;20418;-78
2022/12/04 04:10:58;;;;;;;2.78;2.00;;;;;;;19.61;54.51;100629.78;5095264;28;20052;-78
2022/12/04 04:25:12;;;;;;;4.43;2.20;;;;;;;19.59;54.40;100627.22;5074484;28;20060;-77
2022/12/04 04:27:39;;;;;;;2.87;1.93;;;;;;;19.59;54.10;100629.91;5074420;28;20617;-79
2022/12/04 04:30:08;;;;;;;3.25;1.85;;;;;;;19.60;54.08;100625.38;5074091;28;20057;-79
2022/12/04 04:32:35;;;;;;;2.75;1.88;;;;;;;19.60;53.90;100623.53;5074675;28;20052;-78
2022/12/04 04:35:09;;;;;;;3.42;2.05;;;;;;;19.60;54.06;100612.78;5073900;28;20052;-78
2022/12/04 04:38:13;;;;;;;2.42;1.58;;;;;;;19.59;53.95;100608.41;5074735;28;20412;-78
2022/12/04 04:40:58;;;;;;;2.75;1.58;;;;;;;19.60;53.46;100609.25;5073769;28;20496;-77
2022/12/04 04:43:34;;;;;;;3.45;2.10;;;;;;;19.59;53.68;100610.25;5073948;28;20064;-78
2022/12/04 04:46:10;;;;;;;5.18;1.70;;;;;;;19.59;53.92;100621.84;5074358;28;20159;-78
2022/12/04 04:48:42;;;;;;;3.20;1.80;;;;;;;19.58;54.14;100624.69;5073838;28;20067;-77
2022/12/04 04:51:10;;;;;;;2.40;1.75;;;;;;;19.58;53.68;100617.47;5087914;28;20052;-78
2022/12/04 04:53:43;;;;;;;2.58;1.67;;;;;;;19.59;53.90;100621.84;5092916;28;20044;-78
2022/12/04 04:56:11;;;;;;;;;;;;;;;19.58;54.17;100616.63;5096448;28;20067;-78
2022/12/04 04:58:38;;;;;;;3.58;1.70;;;;;;;19.58;54.16;100609.41;5096495;28;19919;-83
2022/12/04 05:01:18;;;;;;;3.28;1.95;;;;;;;19.59;54.52;100604.88;5094511;28;20044;-78
2022/12/04 05:03:45;;;;;;;2.63;1.45;;;;;;;19.59;54.33;100605.72;5095404;28;20055;-81
2022/12/04 05:06:13;;;;;;;3.35;1.50;;;;;;;19.58;54.19;100597.81;5095244;28;20040;-79
2022/12/04 05:08:40;;;;;;;2.42;1.50;;;;;;;19.59;54.43;100595.00;5090199;28;20052;-76
2022/12/04 05:11:12;;;;;;;2.47;1.60;;;;;;;19.59;54.27;100589.63;5076166;28;20391;-77
2022/12/04 05:13:40;;;;;;;2.30;1.40;;;;;;;19.59;54.33;100589.63;5095603;28;20048;-77
2022/12/04 05:16:12;;;;;;;2.63;1.50;;;;;;;19.59;54.03;100578.03;5078145;28;20052;-78
2022/12/04 05:21:27;;;;;;;2.60;1.50;;;;;;;19.59;53.66;100573.50;5075248;28;20048;-78
2022/12/04 05:23:54;;;;;;;2.50;1.50;;;;;;;19.59;53.77;100576.19;5075243;28;20049;-78
2022/12/04 05:26:22;;;;;;;2.40;1.40;;;;;;;19.57;53.80;100570.13;5075679;28;20052;-78
2022/12/04 05:28:49;;;;;;;2.35;1.40;;;;;;;19.57;53.63;100563.88;5075408;28;20423;-78
2022/12/04 05:31:17;;;;;;;2.53;1.60;;;;;;;19.58;53.76;100576.34;5075658;28;20051;-79
2022/12/04 05:33:44;;;;;;;2.38;0.93;;;;;;;19.57;53.47;100594.28;5075533;28;20051;-79
2022/12/04 05:36:12;;;;;;;3.40;1.27;;;;;;;19.58;53.88;100590.63;5075360;28;20048;-79
2022/12/04 05:38:39;;;;;;;3.38;1.63;;;;;;;19.57;53.58;100593.41;5075268;28;20058;-79
2022/12/04 05:41:07;;;;;;;2.70;1.25;;;;;;;19.57;53.68;100582.69;5074883;28;20067;-79
2022/12/04 05:43:35;;;;;;;2.50;1.25;;;;;;;19.56;53.63;100565.72;5075222;28;20044;-78
2022/12/04 05:46:04;;;;;;;2.53;1.30;;;;;;;19.57;53.57;100550.44;5073453;28;20412;-79
2022/12/04 05:48:33;;;;;;;2.55;1.00;;;;;;;19.56;53.76;100552.28;5075138;28;20500;-79
2022/12/04 05:51:08;;;;;;;4.95;1.55;;;;;;;19.56;53.55;100576.47;5075397;28;20391;-79
2022/12/04 05:53:36;;;;;;;2.15;1.23;;;;;;;19.57;53.56;100586.25;5092635;28;20053;-78
2022/12/04 05:56:05;;;;;;;3.22;1.13;;;;;;;19.57;53.60;100591.59;5095319;28;20041;-79
2022/12/04 05:58:36;;;;;;;2.70;1.50;;;;;;;19.56;53.46;100592.56;5095099;28;20407;-79
2022/12/04 06:01:12;;;;;;;2.03;1.08;;;;;;;19.58;53.72;100600.50;5095368;28;20051;-78
2022/12/04 06:03:39;;;;;;;2.42;1.17;;;;;;;19.56;53.47;100600.63;5088627;28;20048;-78
2022/12/04 06:06:15;;;;;;;2.42;1.10;;;;;;;19.57;53.56;100605.03;5075067;28;20051;-78
2022/12/04 06:08:54;;;;;;;2.53;1.02;;;;;;;19.57;53.47;100621.16;5074619;28;20075;-78
2022/12/04 06:11:31;;;;;;;;;;;;;;;19.56;53.66;100627.47;5075512;28;20048;-78
2022/12/04 06:14:01;;;;;;;2.47;1.30;;;;;;;19.56;53.50;100643.59;5073873;28;19928;-79
2022/12/04 06:16:32;;;;;;;2.70;1.30;;;;;;;19.55;53.59;100631.16;5073853;28;20060;-78
2022/12/04 06:19:02;;;;;;;1.73;1.10;;;;;;;19.56;53.49;100627.47;5075710;28;20051;-78
2022/12/04 06:21:31;;;;;;;1.90;1.00;;;;;;;19.56;53.63;100627.47;5078224;28;20055;-79
2022/12/04 06:23:58;;;;;;;1.70;0.90;;;;;;;19.56;53.38;100629.31;5078245;28;20055;-78
2022/12/04 06:26:26;;;;;;;1.45;1.00;;;;;;;19.56;53.40;100621.25;5078837;28;20049;-78
2022/12/04 06:28:56;;;;;;;1.88;1.10;;;;;;;19.55;53.46;100625.78;5078673;28;20048;-78
2022/12/04 06:31:25;;;;;;;1.90;1.00;;;;;;;19.54;53.35;100624.09;5078641;28;20053;-78
2022/12/04 06:33:54;;;;;;;2.67;0.90;;;;;;;19.55;53.13;100622.25;5077250;28;20480;-78
2022/12/04 06:36:22;;;;;;;1.67;1.05;;;;;;;19.55;53.30;100628.47;5076607;28;20052;-78
2022/12/04 06:38:50;;;;;;;1.75;0.90;;;;;;;19.55;53.10;100622.25;5076533;28;20396;-77
2022/12/04 06:41:19;;;;;;;1.85;0.80;;;;;;;19.55;53.21;100631.16;5078872;28;20052;-78
2022/12/04 06:43:47;;;;;;;2.22;1.00;;;;;;;19.55;53.35;100641.06;5078275;28;20048;-77
2022/12/04 06:46:23;;;;;;;2.25;0.90;;;;;;;19.54;53.36;100640.22;5078134;28;20044;-78
2022/12/04 06:48:53;;;;;;;1.77;1.10;;;;;;;19.54;53.21;100650.94;5078083;28;20048;-78
2022/12/04 06:51:35;;;;;;;1.95;1.05;;;;;;;19.54;53.36;100653.63;5078051;28;20049;-77
2022/12/04 06:54:03;;;;;;;1.50;0.75;;;;;;;19.53;53.19;100649.25;5089112;28;20044;-78
2022/12/04 06:56:31;;;;;;;2.05;1.10;;;;;;;19.54;53.21;100660.84;5097703;28;20036;-78
2022/12/04 06:59:01;;;;;;;2.15;1.17;;;;;;;19.52;53.18;100644.84;5097767;28;20059;-78
2022/12/04 07:01:31;;;;;;;1.70;0.80;;;;;;;19.52;53.21;100640.31;5097777;28;20048;-79
2022/12/04 07:04:02;;;;;;;1.90;1.00;;;;;;;19.53;52.91;100643.88;5098441;28;20063;-79
2022/12/04 07:06:34;;;;;;;2.55;0.98;;;;;;;19.52;53.04;100650.22;5096356;28;20044;-80
2022/12/04 07:09:13;;;;;;;1.52;0.90;;;;;;;19.51;52.85;100661.97;5098482;28;20059;-80
2022/12/04 07:11:41;;;;;;;2.00;0.85;;;;;;;19.51;52.92;100662.81;5098441;28;20399;-79
2022/12/04 07:14:10;;;;;;;1.45;0.70;;;;;;;19.52;52.88;100674.38;5098180;28;20048;-78
2022/12/04 07:16:38;;;;;;;2.88;0.93;;;;;;;19.51;52.98;100668.16;5097031;28;20040;-79
2022/12/04 07:19:10;;;;;;;3.08;0.90;;;;;;;19.52;53.06;100669.03;5098191;28;20403;-80
2022/12/04 07:21:37;;;;;;;2.10;1.00;;;;;;;19.52;53.09;100680.59;5098012;28;20044;-78
2022/12/04 07:24:05;;;;;;;2.00;1.05;;;;;;;19.51;52.54;100676.22;5097894;28;20044;-79
2022/12/04 07:26:32;;;;;;;1.55;0.80;;;;;;;19.52;53.23;100677.91;5097014;28;20036;-79
2022/12/04 07:29:00;;;;;;;2.50;0.70;;;;;;;19.51;52.87;100678.06;5088195;28;20052;-79
2022/12/04 07:31:28;;;;;;;2.72;1.00;;;;;;;19.53;52.82;100689.53;5076164;28;20052;-79
2022/12/04 07:33:56;;;;;;;1.92;1.00;;;;;;;19.51;52.95;100689.66;5076710;28;20044;-80
2022/12/04 07:36:25;;;;;;;1.92;0.90;;;;;;;19.53;53.08;100686.84;5077128;28;20051;-80
2022/12/04 07:38:55;;;;;;;1.45;0.75;;;;;;;19.52;53.04;100677.06;5076115;28;20064;-79
2022/12/04 07:41:22;;;;;;;2.47;1.02;;;;;;;19.53;52.97;100684.16;5076331;28;20056;-79
2022/12/04 07:43:50;;;;;;;1.45;0.80;;;;;;;19.51;53.09;100683.44;5077016;28;20060;-79
2022/12/04 07:46:21;;;;;;;1.20;0.55;;;;;;;19.52;52.96;100695.88;5076395;28;20048;-79
2022/12/04 07:48:48;;;;;;;1.90;0.95;;;;;;;19.52;52.89;100706.59;5075446;28;20408;-79
2022/12/04 07:51:18;;;;;;;1.30;0.60;;;;;;;19.51;52.78;100703.06;5076400;28;20052;-79
2022/12/04 07:53:46;;;;;;;1.48;0.90;;;;;;;19.51;52.99;100704.91;5078326;28;20037;-78
2022/12/04 07:56:14;;;;;;;1.95;1.00;;;;;;;19.51;53.17;100704.91;5095478;28;20047;-79
2022/12/04 07:58:42;;;;;;;1.60;0.60;;;;;;;19.52;53.19;100714.66;5095424;28;20055;-79
2022/12/04 08:01:14;;;;;;;1.73;0.80;;;;;;;19.51;53.21;100716.50;5094882;28;20059;-80
2022/12/04 08:03:43;;;;;;;1.27;0.65;;;;;;;19.52;52.99;100718.19;5096457;28;20059;-79
2022/12/04 08:06:17;;;;;;;1.80;1.17;;;;;;;19.51;53.18;100721.88;5095522;28;20052;-79
2022/12/04 08:08:45;;;;;;;2.00;0.95;;;;;;;19.52;52.91;100722.72;5095745;28;20048;-78
2022/12/04 08:11:16;;;;;;;1.63;0.70;;;;;;;19.50;52.68;100720.19;5095344;28;20052;-84
2022/12/04 08:13:44;;;;;;;1.30;0.80;;;;;;;19.51;53.03;100727.25;5095235;28;20047;-80
2022/12/04 08:16:12;;;;;;;5.75;1.00;;;;;;;19.52;53.31;100736.16;5096551;28;20047;-80
2022/12/04 08:18:45;;;;;;;2.25;0.70;;;;;;;19.51;53.13;100737.97;5096183;28;20048;-80
2022/12/04 08:21:21;;;;;;;2.85;0.90;;;;;;;19.52;53.19;100733.47;5096036;28;20051;-80
2022/12/04 08:23:51;;;;;;;2.60;1.60;;;;;;;19.48;51.05;100745.44;5095231;28;20063;-84
2022/12/04 08:26:20;;;;;;;2.67;2.25;;;;;;;19.29;49.63;100742.72;5096478;28;20048;-81
2022/12/04 08:28:48;;;;;;;3.75;2.17;;;;;;;19.14;49.87;100747.56;5096341;28;20052;-81
2022/12/04 08:31:18;;;;;;;2.90;2.08;;;;;;;19.02;50.51;100741.41;5094903;28;20059;-80
2022/12/04 08:33:48;;;;;;;4.47;2.20;;;;;;;18.87;49.86;100742.72;5096799;28;20044;-80
2022/12/04 08:36:18;;;;;;;2.47;1.77;;;;;;;18.77;50.09;100738.16;5092273;28;20048;-81
2022/12/04 08:38:47;;;;;;;4.07;2.20;;;;;;;18.67;50.48;100742.53;5075273;28;20044;-81
2022/12/04 08:41:17;;;;;;;2.45;1.80;;;;;;;18.58;50.65;100737.97;5075503;28;20046;-81
2022/12/04 08:43:45;;;;;;;2.55;1.70;;;;;;;18.55;50.96;100743.56;5076249;28;20049;-81
2022/12/04 08:46:15;;;;;;;3.17;1.52;;;;;;;18.48;50.84;100745.94;5075821;28;20044;-80
2022/12/04 08:48:45;;;;;;;2.00;1.33;;;;;;;18.50;51.44;100751.16;5075250;28;20070;-76
2022/12/04 08:51:24;;;;;;;2.00;1.10;;;;;;;18.57;51.88;100757.72;5074866;28;20045;-77
2022/12/04 08:53:57;;;;;;;2.53;0.98;;;;;;;18.64;52.81;100758.91;5074929;28;20044;-83
2022/12/04 08:56:26;;;;;;;1.88;0.90;;;;;;;18.71;53.04;100757.44;5082269;28;20048;-84
2022/12/04 08:58:55;;;;;;;2.10;1.10;;;;;;;18.78;52.89;100763.97;5094925;28;20410;-83
2022/12/04 09:01:24;;;;;;;1.88;1.08;;;;;;;18.84;52.94;100764.44;5094666;28;20048;-85
2022/12/04 09:03:51;;;;;;;1.95;0.90;;;;;;;18.89;52.95;100760.41;5095565;28;20040;-85
2022/12/04 09:06:20;;;;;;;4.18;1.10;;;;;;;18.93;52.99;100766.34;5095371;28;20055;-79
2022/12/04 09:08:52;;;;;;;3.10;1.17;;;;;;;18.97;53.10;100762.44;5095635;28;20043;-83
2022/12/04 09:11:22;;;;;;;3.38;0.88;;;;;;;19.00;53.13;100771.06;5094598;28;20051;-81
2022/12/04 09:13:51;;;;;;;3.85;0.80;;;;;;;19.03;52.93;100776.16;5095741;28;20052;-85
2022/12/04 09:16:21;;;;;;;2.35;1.05;;;;;;;19.06;53.21;100784.94;5094487;28;20059;-84
2022/12/04 09:18:49;;;;;;;6.03;0.90;;;;;;;19.09;53.12;100795.41;5094665;28;20051;-83
2022/12/04 09:21:18;;;;;;;3.40;0.80;;;;;;;19.11;53.24;100793.44;5095067;28;20044;-78
2022/12/04 09:23:45;;;;;;;3.90;1.05;;;;;;;19.13;53.27;100799.53;5095670;28;20048;-81
2022/12/04 09:26:25;;;;;;;3.47;0.90;;;;;;;19.15;53.12;100795.72;5094492;28;20051;-76
2022/12/04 09:28:54;;;;;;;2.28;1.00;;;;;;;19.17;53.52;100792.91;5094147;28;20055;-81
2022/12/04 09:31:22;;;;;;;2.25;0.90;;;;;;;19.19;53.45;100797.16;5093725;28;20044;-80
2022/12/04 09:33:51;;;;;;;2.03;0.75;;;;;;;19.19;53.52;100799.84;5095107;28;20499;-79
2022/12/04 09:36:19;;;;;;;2.25;1.00;;;;;;;19.20;52.55;100801.56;5094479;28;20047;-77
2022/12/04 09:38:49;;;;;;;1.58;0.80;;;;;;;19.19;51.55;100802.53;5092576;28;20399;-77
2022/12/04 09:41:34;;;;;;;2.50;1.08;;;;;;;19.18;51.35;100803.50;5095573;28;20048;-77
2022/12/04 09:44:26;;;;;;;2.85;0.80;;;;;;;19.17;50.99;100804.50;5093668;28;20043;-77
2022/12/04 09:47:03;;;;;;;2.75;0.88;;;;;;;19.14;50.40;100804.75;5094481;28;20423;-77
2022/12/04 09:49:40;;;;;;;1.23;0.68;;;;;;;19.12;50.48;100804.06;5094366;28;20058;-77
2022/12/04 09:52:22;;;;;;;4.38;0.90;;;;;;;19.13;51.23;100802.22;5091780;28;20048;-79
2022/12/04 09:54:52;;;;;;;2.03;0.70;;;;;;;19.14;51.32;100801.22;5073686;28;20041;-79
2022/12/04 09:57:37;;;;;;;1.63;0.63;;;;;;;19.16;51.41;100809.97;5087516;28;20052;-80
2022/12/04 10:00:09;;;;;;;3.38;0.75;;;;;;;19.18;52.54;100826.81;5077580;28;20048;-79
2022/12/04 10:02:39;;;;;;;4.25;0.80;;;;;;;19.19;52.64;100810.56;5081554;28;20063;-79
2022/12/04 10:05:16;;;;;;;2.55;0.90;;;;;;;19.23;52.92;100805.78;5074421;28;20055;-77
2022/12/04 10:07:57;;;;;;;1.75;0.73;;;;;;;19.23;53.01;100809.31;5072041;28;20045;-79
2022/12/04 10:10:38;;;;;;;3.70;0.70;;;;;;;19.26;53.30;100803.69;5084330;28;20044;-78
2022/12/04 10:13:41;;;;;;;3.17;0.80;;;;;;;19.27;53.53;100802.72;5094274;28;20051;-76
2022/12/04 10:16:36;;;;;;;1.85;0.60;;;;;;;19.29;53.26;100804.44;5094175;28;20407;-76
2022/12/04 10:19:24;;;;;;;3.65;1.13;;;;;;;19.29;53.32;100802.59;5094358;28;20051;-75
2022/12/04 10:22:12;;;;;;;2.08;0.73;;;;;;;19.31;53.43;100810.50;5094906;28;20052;-76
2022/12/04 10:24:48;;;;;;;1.80;0.75;;;;;;;19.32;53.42;100812.19;5093455;28;20047;-76
2022/12/04 10:27:21;;;;;;;2.45;0.70;;;;;;;19.32;53.15;100820.25;5093179;28;20052;-77
2022/12/04 10:30:01;;;;;;;3.45;0.90;;;;;;;19.33;53.58;100821.97;5093002;28;20074;-76
2022/12/04 10:32:31;;;;;;;1.45;0.50;;;;;;;19.33;53.76;100819.28;5088239;28;20059;-76
2022/12/04 10:35:18;;;;;;;4.10;0.75;;;;;;;19.34;54.02;100816.47;5094155;28;20040;-76
2022/12/04 10:37:50;;;;;;;7.32;1.00;;;;;;;19.35;53.95;100823.53;5092885;28;20071;-81
2022/12/04 10:40:24;;;;;;;4.63;0.88;;;;;;;19.36;54.02;100825.22;5093159;28;20052;-78
2022/12/04 10:43:38;;;;;;;5.25;1.17;;;;;;;19.36;53.75;100819.00;5094917;28;20052;-79
2022/12/04 10:46:28;;;;;;;3.42;0.70;;;;;;;19.37;53.81;100818.91;5065053;28;20490;-78
2022/12/04 10:49:03;;;;;;;6.35;0.80;;;;;;;19.36;53.55;100816.31;5091820;28;20052;-80
2022/12/04 10:51:42;;;;;;;3.50;1.02;;;;;;;19.36;53.50;100817.16;5092413;28;20232;-79
2022/12/04 10:54:32;;;;;;;2.95;1.00;;;;;;;19.36;53.18;100817.16;5090869;28;20058;-80
2022/12/04 10:57:08;;;;;;;4.18;0.98;;;;;;;19.35;53.20;100807.44;5053504;28;20073;-79
2022/12/04 10:59:46;;;;;;;1.65;0.50;;;;;;;19.36;53.27;100813.63;5060237;28;20060;-79
2022/12/04 11:02:21;;;;;;;2.25;0.90;;;;;;;19.37;53.25;100823.41;5050292;28;20064;-80
2022/12/04 11:05:00;;;;;;;4.15;0.80;;;;;;;19.35;53.21;100820.84;5050819;28;20053;-80
2022/12/04 11:07:44;;;;;;;4.38;0.93;;;;;;;19.35;53.12;100825.38;5055058;28;20064;-80
2022/12/04 11:10:21;;;;;;;;;;;;;;;19.35;53.06;100828.91;5055188;28;20079;-79
2022/12/04 11:13:01;;;;;;;2.33;0.90;;;;;;;19.36;53.00;100832.44;5054627;28;19925;-79
2022/12/04 11:15:29;;;;;;;2.65;0.77;;;;;;;19.34;53.10;100829.88;5055682;28;20487;-80
2022/12/04 11:18:07;;;;;;;2.72;0.77;;;;;;;19.35;52.97;100830.75;5054542;28;20045;-79
2022/12/04 11:20:35;;;;;;;1.65;0.45;;;;;;;19.35;52.93;100828.91;5038155;28;20068;-79
2022/12/04 11:23:04;;;;;;;2.33;0.80;;;;;;;19.34;52.95;100832.56;5054681;28;20527;-79
2022/12/04 11:25:43;;;;;;;3.78;0.90;;;;;;;19.35;53.14;100828.06;5054776;28;20408;-79
2022/12/04 11:28:16;;;;;;;2.75;0.70;;;;;;;19.36;52.92;100825.22;5054578;28;20060;-80
2022/12/04 11:31:06;;;;;;;1.70;0.65;;;;;;;19.35;53.10;100817.31;5054695;28;20060;-80
2022/12/04 11:33:43;;;;;;;1.77;0.52;;;;;;;19.35;52.92;100823.53;5050367;28;20060;-81
2022/12/04 11:36:33;;;;;;;1.40;0.50;;;;;;;19.35;52.67;100830.75;5096900;28;20052;-81
2022/12/04 11:39:16;;;;;;;1.95;0.88;;;;;;;19.35;52.86;100828.06;5095650;28;20059;-80
2022/12/04 11:41:43;;;;;;;2.25;0.68;;;;;;;19.35;52.72;100822.69;5096193;28;20048;-81
2022/12/04 11:44:32;;;;;;;1.90;0.70;;;;;;;19.35;52.73;100818.16;5096428;28;20490;-81
2022/12/04 11:47:02;;;;;;;2.75;0.68;;;;;;;19.35;52.79;100814.63;5095729;28;20051;-81
2022/12/04 11:49:31;;;;;;;2.25;0.85;;;;;;;19.35;52.49;100807.44;5095254;28;20051;-81
2022/12/04 11:52:38;;;;;;;3.00;0.60;;;;;;;19.36;52.65;100813.63;5096806;28;20399;-81
2022/12/04 11:55:11;;;;;;;1.25;0.60;;;;;;;19.36;52.45;100827.06;5097317;28;20464;-80
2022/12/04 11:57:41;;;;;;;2.42;0.90;;;;;;;19.36;52.51;100827.06;5096380;28;20044;-81
2022/12/04 12:00:19;;;;;;;2.42;0.70;;;;;;;19.36;52.54;100829.75;5093792;28;20052;-81
2022/12/04 12:03:09;;;;;;;3.35;0.80;;;;;;;19.35;52.72;100825.38;5096023;28;20043;-81
2022/12/04 12:06:05;;;;;;;2.35;0.65;;;;;;;19.36;52.70;100824.38;5096256;28;20048;-82
2022/12/04 12:08:57;;;;;;;2.10;0.55;;;;;;;19.36;52.44;100825.22;5095029;28;20060;-82
2022/12/04 12:11:41;;;;;;;2.60;0.70;;;;;;;19.36;52.53;100835.13;5096927;28;20059;-80